sensor_id;sensor_type;location;lat;lon;timestamp;P1;durP1;ratioP1;P2;durP2;ratioP2
69401;SDS011;56589;51.992;5.924;2023-03-01T00:01:34;5.10;;;3.33;;
69401;SDS011;56589;51.992;5.924;2023-03-01T00:04:00;3.70;;;2.80;;
69401;SDS011;56589;51.992;5.924;2023-03-01T00:06:26;4.10;;;2.83;;
69401;SDS011;56589;51.992;5.924;2023-03-01T00:08:55;7.47;;;2.88;;
69401;SDS011;56589;51.992;5.924;2023-03-01T00:11:22;3.92;;;3.08;;
69401;SDS011;56589;51.992;5.924;2023-03-01T00:13:51;6.18;;;2.97;;
69401;SDS011;56589;51.992;5.924;2023-03-01T00:16:21;5.90;;;2.58;;
69401;SDS011;56589;51.992;5.924;2023-03-01T00:18:51;4.03;;;2.78;;
69401;SDS011;56589;51.992;5.924;2023-03-01T00:21:20;5.55;;;3.38;;
69401;SDS011;56589;51.992;5.924;2023-03-01T00:23:47;3.83;;;2.60;;
69401;SDS011;56589;51.992;5.924;2023-03-01T00:26:16;4.38;;;2.67;;
69401;SDS011;56589;51.992;5.924;2023-03-01T00:28:44;9.10;;;2.80;;
69401;SDS011;56589;51.992;5.924;2023-03-01T00:31:11;4.65;;;2.60;;
69401;SDS011;56589;51.992;5.924;2023-03-01T00:33:40;3.58;;;2.67;;
69401;SDS011;56589;51.992;5.924;2023-03-01T00:36:07;6.20;;;3.10;;
69401;SDS011;56589;51.992;5.924;2023-03-01T00:38:34;4.70;;;2.88;;
69401;SDS011;56589;51.992;5.924;2023-03-01T00:41:02;6.45;;;3.28;;
69401;SDS011;56589;51.992;5.924;2023-03-01T00:43:32;6.65;;;3.67;;
69401;SDS011;56589;51.992;5.924;2023-03-01T00:46:00;4.30;;;3.13;;
69401;SDS011;56589;51.992;5.924;2023-03-01T00:48:26;5.68;;;3.58;;
69401;SDS011;56589;51.992;5.924;2023-03-01T00:50:52;5.93;;;3.00;;
69401;SDS011;56589;51.992;5.924;2023-03-01T00:53:18;7.18;;;3.58;;
69401;SDS011;56589;51.992;5.924;2023-03-01T00:55:44;5.28;;;3.90;;
69401;SDS011;56589;51.992;5.924;2023-03-01T00:58:10;6.18;;;3.60;;
69401;SDS011;56589;51.992;5.924;2023-03-01T01:00:38;7.55;;;3.97;;
69401;SDS011;56589;51.992;5.924;2023-03-01T01:03:04;5.60;;;3.63;;
69401;SDS011;56589;51.992;5.924;2023-03-01T01:05:30;4.93;;;3.38;;
69401;SDS011;56589;51.992;5.924;2023-03-01T01:07:56;6.65;;;4.05;;
69401;SDS011;56589;51.992;5.924;2023-03-01T01:10:21;6.70;;;4.30;;
69401;SDS011;56589;51.992;5.924;2023-03-01T01:12:47;6.57;;;4.15;;
69401;SDS011;56589;51.992;5.924;2023-03-01T01:15:13;8.32;;;4.65;;
69401;SDS011;56589;51.992;5.924;2023-03-01T01:17:42;7.78;;;4.45;;
69401;SDS011;56589;51.992;5.924;2023-03-01T01:20:09;6.85;;;4.65;;
69401;SDS011;56589;51.992;5.924;2023-03-01T01:22:36;4.82;;;4.10;;
69401;SDS011;56589;51.992;5.924;2023-03-01T01:25:02;6.88;;;3.83;;
69401;SDS011;56589;51.992;5.924;2023-03-01T01:27:29;10.80;;;5.57;;
69401;SDS011;56589;51.992;5.924;2023-03-01T01:29:55;9.48;;;4.50;;
69401;SDS011;56589;51.992;5.924;2023-03-01T01:32:21;7.22;;;4.07;;
69401;SDS011;56589;51.992;5.924;2023-03-01T01:34:50;6.88;;;4.35;;
69401;SDS011;56589;51.992;5.924;2023-03-01T01:37:15;9.68;;;4.93;;
69401;SDS011;56589;51.992;5.924;2023-03-01T01:39:41;8.55;;;5.30;;
69401;SDS011;56589;51.992;5.924;2023-03-01T01:42:09;9.00;;;5.43;;
69401;SDS011;56589;51.992;5.924;2023-03-01T01:44:40;10.60;;;5.38;;
69401;SDS011;56589;51.992;5.924;2023-03-01T01:47:12;9.77;;;5.07;;
69401;SDS011;56589;51.992;5.924;2023-03-01T01:49:43;7.47;;;4.82;;
69401;SDS011;56589;51.992;5.924;2023-03-01T01:52:17;6.57;;;4.60;;
69401;SDS011;56589;51.992;5.924;2023-03-01T01:54:49;7.47;;;4.68;;
69401;SDS011;56589;51.992;5.924;2023-03-01T01:57:22;8.30;;;5.07;;
69401;SDS011;56589;51.992;5.924;2023-03-01T01:59:59;6.88;;;5.13;;
69401;SDS011;56589;51.992;5.924;2023-03-01T02:02:31;6.05;;;4.47;;
69401;SDS011;56589;51.992;5.924;2023-03-01T02:05:00;8.90;;;4.55;;
69401;SDS011;56589;51.992;5.924;2023-03-01T02:07:37;7.80;;;4.75;;
69401;SDS011;56589;51.992;5.924;2023-03-01T02:10:05;7.22;;;4.07;;
69401;SDS011;56589;51.992;5.924;2023-03-01T02:12:33;8.57;;;5.47;;
69401;SDS011;56589;51.992;5.924;2023-03-01T02:15:01;8.48;;;4.93;;
69401;SDS011;56589;51.992;5.924;2023-03-01T02:17:27;9.05;;;4.88;;
69401;SDS011;56589;51.992;5.924;2023-03-01T02:19:59;10.15;;;4.93;;
69401;SDS011;56589;51.992;5.924;2023-03-01T02:22:45;9.23;;;4.63;;
69401;SDS011;56589;51.992;5.924;2023-03-01T02:25:21;5.90;;;4.68;;
69401;SDS011;56589;51.992;5.924;2023-03-01T02:27:54;6.68;;;4.85;;
69401;SDS011;56589;51.992;5.924;2023-03-01T02:30:34;7.55;;;4.88;;
69401;SDS011;56589;51.992;5.924;2023-03-01T02:33:01;6.10;;;4.38;;
69401;SDS011;56589;51.992;5.924;2023-03-01T02:35:30;8.63;;;4.63;;
69401;SDS011;56589;51.992;5.924;2023-03-01T02:38:00;9.40;;;4.78;;
69401;SDS011;56589;51.992;5.924;2023-03-01T02:40:28;6.30;;;4.55;;
69401;SDS011;56589;51.992;5.924;2023-03-01T02:42:58;6.43;;;4.60;;
69401;SDS011;56589;51.992;5.924;2023-03-01T02:45:24;6.85;;;4.32;;
69401;SDS011;56589;51.992;5.924;2023-03-01T02:47:56;6.10;;;4.57;;
69401;SDS011;56589;51.992;5.924;2023-03-01T02:50:36;10.27;;;4.72;;
69401;SDS011;56589;51.992;5.924;2023-03-01T02:53:21;5.85;;;4.05;;
69401;SDS011;56589;51.992;5.924;2023-03-01T02:56:00;9.00;;;4.40;;
69401;SDS011;56589;51.992;5.924;2023-03-01T02:58:26;7.72;;;4.55;;
69401;SDS011;56589;51.992;5.924;2023-03-01T03:00:52;6.18;;;4.57;;
69401;SDS011;56589;51.992;5.924;2023-03-01T03:03:21;7.63;;;4.47;;
69401;SDS011;56589;51.992;5.924;2023-03-01T03:05:47;8.40;;;4.10;;
69401;SDS011;56589;51.992;5.924;2023-03-01T03:08:13;9.13;;;4.43;;
69401;SDS011;56589;51.992;5.924;2023-03-01T03:10:40;6.25;;;4.47;;
69401;SDS011;56589;51.992;5.924;2023-03-01T03:13:07;6.80;;;4.38;;
69401;SDS011;56589;51.992;5.924;2023-03-01T03:15:35;5.55;;;4.00;;
69401;SDS011;56589;51.992;5.924;2023-03-01T03:18:02;7.65;;;4.65;;
69401;SDS011;56589;51.992;5.924;2023-03-01T03:20:33;8.45;;;4.93;;
69401;SDS011;56589;51.992;5.924;2023-03-01T03:22:59;6.80;;;4.45;;
69401;SDS011;56589;51.992;5.924;2023-03-01T03:25:26;8.13;;;4.55;;
69401;SDS011;56589;51.992;5.924;2023-03-01T03:27:54;10.77;;;4.85;;
69401;SDS011;56589;51.992;5.924;2023-03-01T03:30:21;6.88;;;4.00;;
69401;SDS011;56589;51.992;5.924;2023-03-01T03:32:49;7.90;;;4.68;;
69401;SDS011;56589;51.992;5.924;2023-03-01T03:35:15;7.90;;;4.50;;
69401;SDS011;56589;51.992;5.924;2023-03-01T03:37:44;8.20;;;3.80;;
69401;SDS011;56589;51.992;5.924;2023-03-01T03:40:10;5.95;;;4.22;;
69401;SDS011;56589;51.992;5.924;2023-03-01T03:42:37;6.65;;;4.10;;
69401;SDS011;56589;51.992;5.924;2023-03-01T03:45:03;6.40;;;4.22;;
69401;SDS011;56589;51.992;5.924;2023-03-01T03:47:30;7.65;;;4.38;;
69401;SDS011;56589;51.992;5.924;2023-03-01T03:49:56;6.93;;;4.28;;
69401;SDS011;56589;51.992;5.924;2023-03-01T03:52:22;8.88;;;4.10;;
69401;SDS011;56589;51.992;5.924;2023-03-01T03:54:53;5.88;;;3.95;;
69401;SDS011;56589;51.992;5.924;2023-03-01T03:57:19;6.25;;;3.72;;
69401;SDS011;56589;51.992;5.924;2023-03-01T03:59:45;7.75;;;4.60;;
69401;SDS011;56589;51.992;5.924;2023-03-01T04:02:11;7.22;;;4.30;;
69401;SDS011;56589;51.992;5.924;2023-03-01T04:04:36;6.97;;;4.22;;
69401;SDS011;56589;51.992;5.924;2023-03-01T04:07:02;8.23;;;5.03;;
69401;SDS011;56589;51.992;5.924;2023-03-01T04:09:28;8.93;;;5.15;;
69401;SDS011;56589;51.992;5.924;2023-03-01T04:11:56;8.80;;;5.13;;
69401;SDS011;56589;51.992;5.924;2023-03-01T04:14:22;12.05;;;4.53;;
69401;SDS011;56589;51.992;5.924;2023-03-01T04:16:48;9.15;;;4.97;;
69401;SDS011;56589;51.992;5.924;2023-03-01T04:19:14;8.48;;;5.20;;
69401;SDS011;56589;51.992;5.924;2023-03-01T04:21:40;7.47;;;4.35;;
69401;SDS011;56589;51.992;5.924;2023-03-01T04:24:06;5.55;;;4.03;;
69401;SDS011;56589;51.992;5.924;2023-03-01T04:26:32;10.70;;;4.57;;
69401;SDS011;56589;51.992;5.924;2023-03-01T04:29:01;7.57;;;4.35;;
69401;SDS011;56589;51.992;5.924;2023-03-01T04:31:26;5.97;;;3.88;;
69401;SDS011;56589;51.992;5.924;2023-03-01T04:33:54;6.82;;;4.10;;
69401;SDS011;56589;51.992;5.924;2023-03-01T04:36:21;8.68;;;4.25;;
69401;SDS011;56589;51.992;5.924;2023-03-01T04:38:50;6.57;;;4.05;;
69401;SDS011;56589;51.992;5.924;2023-03-01T04:41:17;6.00;;;4.03;;
69401;SDS011;56589;51.992;5.924;2023-03-01T04:43:45;7.50;;;4.60;;
69401;SDS011;56589;51.992;5.924;2023-03-01T04:46:14;8.85;;;3.80;;
69401;SDS011;56589;51.992;5.924;2023-03-01T04:48:43;4.97;;;3.42;;
69401;SDS011;56589;51.992;5.924;2023-03-01T04:51:10;8.40;;;4.45;;
69401;SDS011;56589;51.992;5.924;2023-03-01T04:53:36;5.32;;;3.30;;
69401;SDS011;56589;51.992;5.924;2023-03-01T04:56:02;7.57;;;3.45;;
69401;SDS011;56589;51.992;5.924;2023-03-01T04:58:29;5.68;;;3.72;;
69401;SDS011;56589;51.992;5.924;2023-03-01T05:00:55;5.53;;;3.03;;
69401;SDS011;56589;51.992;5.924;2023-03-01T05:03:24;7.95;;;3.88;;
69401;SDS011;56589;51.992;5.924;2023-03-01T05:05:51;7.50;;;3.85;;
69401;SDS011;56589;51.992;5.924;2023-03-01T05:08:17;7.18;;;4.18;;
69401;SDS011;56589;51.992;5.924;2023-03-01T05:10:44;8.85;;;4.53;;
69401;SDS011;56589;51.992;5.924;2023-03-01T05:13:15;6.68;;;4.85;;
69401;SDS011;56589;51.992;5.924;2023-03-01T05:15:42;6.82;;;4.47;;
69401;SDS011;56589;51.992;5.924;2023-03-01T05:18:07;7.50;;;3.83;;
69401;SDS011;56589;51.992;5.924;2023-03-01T05:20:36;7.45;;;4.38;;
69401;SDS011;56589;51.992;5.924;2023-03-01T05:23:04;10.95;;;4.28;;
69401;SDS011;56589;51.992;5.924;2023-03-01T05:25:31;7.40;;;4.07;;
69401;SDS011;56589;51.992;5.924;2023-03-01T05:27:58;6.95;;;3.90;;
69401;SDS011;56589;51.992;5.924;2023-03-01T05:30:24;6.45;;;3.92;;
69401;SDS011;56589;51.992;5.924;2023-03-01T05:32:50;5.55;;;4.13;;
69401;SDS011;56589;51.992;5.924;2023-03-01T05:35:17;9.07;;;4.47;;
69401;SDS011;56589;51.992;5.924;2023-03-01T05:37:46;6.40;;;4.30;;
69401;SDS011;56589;51.992;5.924;2023-03-01T05:40:14;5.78;;;3.90;;
69401;SDS011;56589;51.992;5.924;2023-03-01T05:42:43;6.55;;;3.80;;
69401;SDS011;56589;51.992;5.924;2023-03-01T05:45:11;6.13;;;4.13;;
69401;SDS011;56589;51.992;5.924;2023-03-01T05:47:38;5.53;;;4.35;;
69401;SDS011;56589;51.992;5.924;2023-03-01T05:50:04;6.45;;;4.05;;
69401;SDS011;56589;51.992;5.924;2023-03-01T05:52:31;7.50;;;4.38;;
69401;SDS011;56589;51.992;5.924;2023-03-01T05:54:59;8.18;;;5.18;;
69401;SDS011;56589;51.992;5.924;2023-03-01T05:57:25;6.15;;;4.25;;
69401;SDS011;56589;51.992;5.924;2023-03-01T05:59:53;5.35;;;3.35;;
69401;SDS011;56589;51.992;5.924;2023-03-01T06:02:19;11.93;;;4.18;;
69401;SDS011;56589;51.992;5.924;2023-03-01T06:04:45;7.53;;;3.72;;
69401;SDS011;56589;51.992;5.924;2023-03-01T06:07:11;9.48;;;4.90;;
69401;SDS011;56589;51.992;5.924;2023-03-01T06:09:37;9.48;;;4.47;;
69401;SDS011;56589;51.992;5.924;2023-03-01T06:12:05;6.72;;;3.90;;
69401;SDS011;56589;51.992;5.924;2023-03-01T06:14:31;8.90;;;4.22;;
69401;SDS011;56589;51.992;5.924;2023-03-01T06:16:57;6.97;;;4.07;;
69401;SDS011;56589;51.992;5.924;2023-03-01T06:19:23;9.05;;;4.22;;
69401;SDS011;56589;51.992;5.924;2023-03-01T06:21:49;7.35;;;4.45;;
69401;SDS011;56589;51.992;5.924;2023-03-01T06:24:15;7.88;;;4.85;;
69401;SDS011;56589;51.992;5.924;2023-03-01T06:26:41;7.03;;;3.88;;
69401;SDS011;56589;51.992;5.924;2023-03-01T06:29:09;8.27;;;4.40;;
69401;SDS011;56589;51.992;5.924;2023-03-01T06:31:35;8.75;;;5.25;;
69401;SDS011;56589;51.992;5.924;2023-03-01T06:34:00;8.52;;;3.97;;
69401;SDS011;56589;51.992;5.924;2023-03-01T06:36:26;6.47;;;3.70;;
69401;SDS011;56589;51.992;5.924;2023-03-01T06:38:52;8.15;;;4.15;;
69401;SDS011;56589;51.992;5.924;2023-03-01T06:41:18;7.78;;;4.20;;
69401;SDS011;56589;51.992;5.924;2023-03-01T06:43:44;8.15;;;4.30;;
69401;SDS011;56589;51.992;5.924;2023-03-01T06:46:13;6.70;;;4.10;;
69401;SDS011;56589;51.992;5.924;2023-03-01T06:48:38;7.90;;;4.65;;
69401;SDS011;56589;51.992;5.924;2023-03-01T06:51:04;6.68;;;4.70;;
69401;SDS011;56589;51.992;5.924;2023-03-01T06:53:30;8.40;;;5.93;;
69401;SDS011;56589;51.992;5.924;2023-03-01T06:55:56;6.25;;;4.70;;
69401;SDS011;56589;51.992;5.924;2023-03-01T06:58:23;10.93;;;5.97;;
69401;SDS011;56589;51.992;5.924;2023-03-01T07:00:49;10.85;;;6.82;;
69401;SDS011;56589;51.992;5.924;2023-03-01T07:03:17;9.35;;;5.72;;
69401;SDS011;56589;51.992;5.924;2023-03-01T07:05:46;9.45;;;5.43;;
69401;SDS011;56589;51.992;5.924;2023-03-01T07:08:14;8.20;;;4.53;;
69401;SDS011;56589;51.992;5.924;2023-03-01T07:10:39;6.78;;;4.75;;
69401;SDS011;56589;51.992;5.924;2023-03-01T07:13:05;7.10;;;4.70;;
69401;SDS011;56589;51.992;5.924;2023-03-01T07:15:31;7.45;;;4.82;;
69401;SDS011;56589;51.992;5.924;2023-03-01T07:17:57;6.97;;;4.88;;
69401;SDS011;56589;51.992;5.924;2023-03-01T07:20:25;7.60;;;4.78;;
69401;SDS011;56589;51.992;5.924;2023-03-01T07:22:51;7.25;;;4.38;;
69401;SDS011;56589;51.992;5.924;2023-03-01T07:25:18;11.80;;;5.18;;
69401;SDS011;56589;51.992;5.924;2023-03-01T07:27:44;8.05;;;4.10;;
69401;SDS011;56589;51.992;5.924;2023-03-01T07:30:15;7.43;;;4.05;;
69401;SDS011;56589;51.992;5.924;2023-03-01T07:32:41;7.93;;;4.00;;
69401;SDS011;56589;51.992;5.924;2023-03-01T07:35:08;8.52;;;4.57;;
69401;SDS011;56589;51.992;5.924;2023-03-01T07:37:37;8.35;;;4.28;;
69401;SDS011;56589;51.992;5.924;2023-03-01T07:40:04;6.05;;;3.85;;
69401;SDS011;56589;51.992;5.924;2023-03-01T07:42:32;9.27;;;4.63;;
69401;SDS011;56589;51.992;5.924;2023-03-01T07:44:57;7.05;;;3.85;;
69401;SDS011;56589;51.992;5.924;2023-03-01T07:47:23;8.25;;;3.80;;
69401;SDS011;56589;51.992;5.924;2023-03-01T07:49:49;7.28;;;3.80;;
69401;SDS011;56589;51.992;5.924;2023-03-01T07:52:15;5.57;;;3.75;;
69401;SDS011;56589;51.992;5.924;2023-03-01T07:54:44;8.13;;;4.10;;
69401;SDS011;56589;51.992;5.924;2023-03-01T07:57:10;9.55;;;4.35;;
69401;SDS011;56589;51.992;5.924;2023-03-01T07:59:36;6.78;;;3.85;;
69401;SDS011;56589;51.992;5.924;2023-03-01T08:02:02;6.32;;;4.13;;
69401;SDS011;56589;51.992;5.924;2023-03-01T08:04:28;7.55;;;4.38;;
69401;SDS011;56589;51.992;5.924;2023-03-01T08:06:54;10.05;;;4.60;;
69401;SDS011;56589;51.992;5.924;2023-03-01T08:09:20;5.78;;;4.00;;
69401;SDS011;56589;51.992;5.924;2023-03-01T08:11:49;8.82;;;4.13;;
69401;SDS011;56589;51.992;5.924;2023-03-01T08:14:15;8.00;;;4.13;;
69401;SDS011;56589;51.992;5.924;2023-03-01T08:16:41;8.48;;;4.00;;
69401;SDS011;56589;51.992;5.924;2023-03-01T08:19:08;6.20;;;3.88;;
69401;SDS011;56589;51.992;5.924;2023-03-01T08:21:36;14.43;;;5.53;;
69401;SDS011;56589;51.992;5.924;2023-03-01T08:24:03;7.00;;;4.00;;
69401;SDS011;56589;51.992;5.924;2023-03-01T08:26:32;6.72;;;3.78;;
69401;SDS011;56589;51.992;5.924;2023-03-01T08:29:02;8.63;;;4.25;;
69401;SDS011;56589;51.992;5.924;2023-03-01T08:31:30;5.78;;;4.10;;
69401;SDS011;56589;51.992;5.924;2023-03-01T08:33:59;6.43;;;4.32;;
69401;SDS011;56589;51.992;5.924;2023-03-01T08:36:28;8.38;;;3.88;;
69401;SDS011;56589;51.992;5.924;2023-03-01T08:38:57;5.60;;;3.80;;
69401;SDS011;56589;51.992;5.924;2023-03-01T08:41:24;8.85;;;4.30;;
69401;SDS011;56589;51.992;5.924;2023-03-01T08:43:51;8.75;;;3.65;;
69401;SDS011;56589;51.992;5.924;2023-03-01T08:46:19;7.05;;;3.70;;
69401;SDS011;56589;51.992;5.924;2023-03-01T08:48:47;6.03;;;3.40;;
69401;SDS011;56589;51.992;5.924;2023-03-01T08:51:14;6.57;;;3.17;;
69401;SDS011;56589;51.992;5.924;2023-03-01T08:53:42;8.70;;;3.63;;
69401;SDS011;56589;51.992;5.924;2023-03-01T08:56:09;6.20;;;3.63;;
69401;SDS011;56589;51.992;5.924;2023-03-01T08:58:36;6.07;;;3.50;;
69401;SDS011;56589;51.992;5.924;2023-03-01T09:01:06;7.45;;;3.55;;
69401;SDS011;56589;51.992;5.924;2023-03-01T09:03:35;6.63;;;3.35;;
69401;SDS011;56589;51.992;5.924;2023-03-01T09:06:02;5.68;;;3.47;;
69401;SDS011;56589;51.992;5.924;2023-03-01T09:08:29;7.63;;;3.53;;
69401;SDS011;56589;51.992;5.924;2023-03-01T09:10:56;4.53;;;2.90;;
69401;SDS011;56589;51.992;5.924;2023-03-01T09:13:22;9.60;;;3.67;;
69401;SDS011;56589;51.992;5.924;2023-03-01T09:15:48;5.15;;;3.30;;
69401;SDS011;56589;51.992;5.924;2023-03-01T09:18:13;4.88;;;3.08;;
69401;SDS011;56589;51.992;5.924;2023-03-01T09:20:42;6.18;;;3.45;;
69401;SDS011;56589;51.992;5.924;2023-03-01T09:23:08;6.90;;;3.55;;
69401;SDS011;56589;51.992;5.924;2023-03-01T09:25:33;5.53;;;2.67;;
69401;SDS011;56589;51.992;5.924;2023-03-01T09:28:00;6.93;;;3.25;;
69401;SDS011;56589;51.992;5.924;2023-03-01T09:30:26;4.78;;;3.10;;
69401;SDS011;56589;51.992;5.924;2023-03-01T09:32:52;8.75;;;3.70;;
69401;SDS011;56589;51.992;5.924;2023-03-01T09:35:18;7.10;;;3.65;;
69401;SDS011;56589;51.992;5.924;2023-03-01T09:37:46;7.45;;;4.30;;
69401;SDS011;56589;51.992;5.924;2023-03-01T09:40:13;8.68;;;4.40;;
69401;SDS011;56589;51.992;5.924;2023-03-01T09:42:53;9.55;;;4.60;;
69401;SDS011;56589;51.992;5.924;2023-03-01T09:45:27;8.38;;;4.95;;
69401;SDS011;56589;51.992;5.924;2023-03-01T09:48:00;9.02;;;4.97;;
69401;SDS011;56589;51.992;5.924;2023-03-01T09:50:32;8.77;;;4.43;;
69401;SDS011;56589;51.992;5.924;2023-03-01T09:53:07;8.93;;;5.27;;
69401;SDS011;56589;51.992;5.924;2023-03-01T09:55:39;7.28;;;5.10;;
69401;SDS011;56589;51.992;5.924;2023-03-01T09:58:18;8.77;;;5.15;;
69401;SDS011;56589;51.992;5.924;2023-03-01T10:01:02;8.30;;;5.07;;
69401;SDS011;56589;51.992;5.924;2023-03-01T10:03:51;10.00;;;6.80;;
69401;SDS011;56589;51.992;5.924;2023-03-01T10:06:36;15.27;;;7.47;;
69401;SDS011;56589;51.992;5.924;2023-03-01T10:09:10;12.32;;;5.95;;
69401;SDS011;56589;51.992;5.924;2023-03-01T10:11:42;7.80;;;5.15;;
69401;SDS011;56589;51.992;5.924;2023-03-01T10:14:15;7.72;;;5.00;;
69401;SDS011;56589;51.992;5.924;2023-03-01T10:16:59;7.70;;;4.63;;
69401;SDS011;56589;51.992;5.924;2023-03-01T10:19:31;9.15;;;5.68;;
69401;SDS011;56589;51.992;5.924;2023-03-01T10:22:04;6.63;;;4.07;;
69401;SDS011;56589;51.992;5.924;2023-03-01T10:24:43;5.10;;;3.15;;
69401;SDS011;56589;51.992;5.924;2023-03-01T10:27:10;8.45;;;4.00;;
69401;SDS011;56589;51.992;5.924;2023-03-01T10:29:48;7.88;;;4.07;;
69401;SDS011;56589;51.992;5.924;2023-03-01T10:32:24;6.53;;;3.70;;
69401;SDS011;56589;51.992;5.924;2023-03-01T10:34:51;6.88;;;4.45;;
69401;SDS011;56589;51.992;5.924;2023-03-01T10:37:18;8.52;;;4.80;;
69401;SDS011;56589;51.992;5.924;2023-03-01T10:39:58;7.60;;;4.80;;
69401;SDS011;56589;51.992;5.924;2023-03-01T10:42:28;6.07;;;3.70;;
69401;SDS011;56589;51.992;5.924;2023-03-01T10:44:57;6.40;;;3.65;;
69401;SDS011;56589;51.992;5.924;2023-03-01T10:47:39;7.07;;;3.90;;
69401;SDS011;56589;51.992;5.924;2023-03-01T10:50:06;8.68;;;4.00;;
69401;SDS011;56589;51.992;5.924;2023-03-01T10:52:55;9.25;;;4.18;;
69401;SDS011;56589;51.992;5.924;2023-03-01T10:55:27;4.93;;;3.45;;
69401;SDS011;56589;51.992;5.924;2023-03-01T10:58:07;6.88;;;3.80;;
69401;SDS011;56589;51.992;5.924;2023-03-01T11:00:46;5.93;;;3.30;;
69401;SDS011;56589;51.992;5.924;2023-03-01T11:03:16;5.82;;;3.60;;
69401;SDS011;56589;51.992;5.924;2023-03-01T11:05:51;5.50;;;3.28;;
69401;SDS011;56589;51.992;5.924;2023-03-01T11:08:34;4.95;;;3.55;;
69401;SDS011;56589;51.992;5.924;2023-03-01T11:11:22;5.85;;;3.50;;
69401;SDS011;56589;51.992;5.924;2023-03-01T11:13:56;6.97;;;3.60;;
69401;SDS011;56589;51.992;5.924;2023-03-01T11:16:26;7.43;;;3.97;;
69401;SDS011;56589;51.992;5.924;2023-03-01T11:19:00;7.68;;;4.30;;
69401;SDS011;56589;51.992;5.924;2023-03-01T11:21:41;5.68;;;3.40;;
69401;SDS011;56589;51.992;5.924;2023-03-01T11:24:19;5.82;;;3.63;;
69401;SDS011;56589;51.992;5.924;2023-03-01T11:26:57;8.48;;;3.83;;
69401;SDS011;56589;51.992;5.924;2023-03-01T11:29:30;7.10;;;4.00;;
69401;SDS011;56589;51.992;5.924;2023-03-01T11:32:04;6.20;;;3.35;;
69401;SDS011;56589;51.992;5.924;2023-03-01T11:34:38;6.10;;;3.75;;
69401;SDS011;56589;51.992;5.924;2023-03-01T11:37:15;6.30;;;4.00;;
69401;SDS011;56589;51.992;5.924;2023-03-01T11:39:59;5.93;;;3.25;;
69401;SDS011;56589;51.992;5.924;2023-03-01T11:42:52;4.43;;;3.17;;
69401;SDS011;56589;51.992;5.924;2023-03-01T11:45:31;7.00;;;3.65;;
69401;SDS011;56589;51.992;5.924;2023-03-01T11:51:16;9.75;;;5.13;;
69401;SDS011;56589;51.992;5.924;2023-03-01T11:54:04;6.35;;;3.80;;
69401;SDS011;56589;51.992;5.924;2023-03-01T11:56:43;6.28;;;3.72;;
69401;SDS011;56589;51.992;5.924;2023-03-01T11:59:30;5.63;;;3.78;;
69401;SDS011;56589;51.992;5.924;2023-03-01T12:02:21;5.53;;;4.05;;
69401;SDS011;56589;51.992;5.924;2023-03-01T12:08:20;5.60;;;3.80;;
69401;SDS011;56589;51.992;5.924;2023-03-01T12:11:01;5.85;;;3.88;;
69401;SDS011;56589;51.992;5.924;2023-03-01T12:13:48;7.60;;;4.22;;
69401;SDS011;56589;51.992;5.924;2023-03-01T12:16:45;6.85;;;4.20;;
69401;SDS011;56589;51.992;5.924;2023-03-01T12:19:58;6.78;;;3.67;;
69401;SDS011;56589;51.992;5.924;2023-03-01T12:22:42;6.57;;;3.72;;
69401;SDS011;56589;51.992;5.924;2023-03-01T12:25:34;5.47;;;3.70;;
69401;SDS011;56589;51.992;5.924;2023-03-01T12:28:14;5.38;;;3.67;;
69401;SDS011;56589;51.992;5.924;2023-03-01T12:31:17;5.65;;;3.47;;
69401;SDS011;56589;51.992;5.924;2023-03-01T12:36:57;5.15;;;3.65;;
69401;SDS011;56589;51.992;5.924;2023-03-01T12:39:45;6.40;;;4.22;;
69401;SDS011;56589;51.992;5.924;2023-03-01T12:42:40;10.75;;;4.63;;
69401;SDS011;56589;51.992;5.924;2023-03-01T12:45:29;6.40;;;3.60;;
69401;SDS011;56589;51.992;5.924;2023-03-01T12:48:16;5.80;;;3.40;;
69401;SDS011;56589;51.992;5.924;2023-03-01T12:51:05;6.57;;;3.78;;
69401;SDS011;56589;51.992;5.924;2023-03-01T12:53:38;6.53;;;3.55;;
69401;SDS011;56589;51.992;5.924;2023-03-01T12:56:10;6.93;;;3.78;;
69401;SDS011;56589;51.992;5.924;2023-03-01T12:58:45;5.07;;;3.35;;
69401;SDS011;56589;51.992;5.924;2023-03-01T13:01:28;6.57;;;3.38;;
69401;SDS011;56589;51.992;5.924;2023-03-01T13:04:11;5.60;;;3.00;;
69401;SDS011;56589;51.992;5.924;2023-03-01T13:07:04;6.15;;;3.53;;
69401;SDS011;56589;51.992;5.924;2023-03-01T13:09:49;5.22;;;3.30;;
69401;SDS011;56589;51.992;5.924;2023-03-01T13:15:37;6.60;;;3.53;;
69401;SDS011;56589;51.992;5.924;2023-03-01T13:18:04;7.47;;;3.47;;
69401;SDS011;56589;51.992;5.924;2023-03-01T13:20:53;4.97;;;3.42;;
69401;SDS011;56589;51.992;5.924;2023-03-01T13:23:26;5.20;;;3.13;;
69401;SDS011;56589;51.992;5.924;2023-03-01T13:26:00;5.80;;;3.08;;
69401;SDS011;56589;51.992;5.924;2023-03-01T13:28:40;6.40;;;3.67;;
69401;SDS011;56589;51.992;5.924;2023-03-01T13:37:21;5.30;;;3.22;;
69401;SDS011;56589;51.992;5.924;2023-03-01T13:39:56;6.55;;;3.40;;
69401;SDS011;56589;51.992;5.924;2023-03-01T13:42:30;5.53;;;3.42;;
69401;SDS011;56589;51.992;5.924;2023-03-01T13:45:04;3.92;;;3.00;;
69401;SDS011;56589;51.992;5.924;2023-03-01T13:47:44;4.97;;;3.15;;
69401;SDS011;56589;51.992;5.924;2023-03-01T13:50:16;4.53;;;3.63;;
69401;SDS011;56589;51.992;5.924;2023-03-01T13:52:49;5.97;;;3.15;;
69401;SDS011;56589;51.992;5.924;2023-03-01T13:55:23;6.90;;;3.50;;
69401;SDS011;56589;51.992;5.924;2023-03-01T13:57:58;6.65;;;3.33;;
69401;SDS011;56589;51.992;5.924;2023-03-01T14:00:30;7.95;;;3.28;;
69401;SDS011;56589;51.992;5.924;2023-03-01T14:03:00;6.45;;;3.50;;
69401;SDS011;56589;51.992;5.924;2023-03-01T14:05:35;9.35;;;3.40;;
69401;SDS011;56589;51.992;5.924;2023-03-01T14:08:05;4.68;;;3.60;;
69401;SDS011;56589;51.992;5.924;2023-03-01T14:10:52;6.75;;;3.65;;
69401;SDS011;56589;51.992;5.924;2023-03-01T14:13:35;5.22;;;3.60;;
69401;SDS011;56589;51.992;5.924;2023-03-01T14:16:22;6.13;;;4.30;;
69401;SDS011;56589;51.992;5.924;2023-03-01T14:19:07;5.47;;;3.33;;
69401;SDS011;56589;51.992;5.924;2023-03-01T14:21:44;5.90;;;3.60;;
69401;SDS011;56589;51.992;5.924;2023-03-01T14:24:17;5.72;;;3.70;;
69401;SDS011;56589;51.992;5.924;2023-03-01T14:26:49;6.93;;;4.03;;
69401;SDS011;56589;51.992;5.924;2023-03-01T14:29:25;6.82;;;3.42;;
69401;SDS011;56589;51.992;5.924;2023-03-01T14:32:07;5.93;;;3.67;;
69401;SDS011;56589;51.992;5.924;2023-03-01T14:34:36;4.70;;;3.47;;
69401;SDS011;56589;51.992;5.924;2023-03-01T14:37:11;5.72;;;3.65;;
69401;SDS011;56589;51.992;5.924;2023-03-01T14:39:46;5.78;;;3.63;;
69401;SDS011;56589;51.992;5.924;2023-03-01T14:42:15;6.38;;;3.72;;
69401;SDS011;56589;51.992;5.924;2023-03-01T14:44:43;5.75;;;3.50;;
69401;SDS011;56589;51.992;5.924;2023-03-01T14:47:14;6.32;;;3.08;;
69401;SDS011;56589;51.992;5.924;2023-03-01T14:49:54;6.35;;;3.58;;
69401;SDS011;56589;51.992;5.924;2023-03-01T14:52:28;7.97;;;3.47;;
69401;SDS011;56589;51.992;5.924;2023-03-01T14:55:01;5.30;;;3.40;;
69401;SDS011;56589;51.992;5.924;2023-03-01T14:57:33;5.32;;;3.75;;
69401;SDS011;56589;51.992;5.924;2023-03-01T15:00:00;7.65;;;4.47;;
69401;SDS011;56589;51.992;5.924;2023-03-01T15:02:31;7.90;;;3.20;;
69401;SDS011;56589;51.992;5.924;2023-03-01T15:05:00;4.85;;;3.10;;
69401;SDS011;56589;51.992;5.924;2023-03-01T15:07:30;6.03;;;3.85;;
69401;SDS011;56589;51.992;5.924;2023-03-01T15:10:03;4.43;;;3.00;;
69401;SDS011;56589;51.992;5.924;2023-03-01T15:12:40;7.07;;;3.53;;
69401;SDS011;56589;51.992;5.924;2023-03-01T15:15:20;6.97;;;3.95;;
69401;SDS011;56589;51.992;5.924;2023-03-01T15:17:59;5.45;;;3.22;;
69401;SDS011;56589;51.992;5.924;2023-03-01T15:20:29;5.05;;;3.15;;
69401;SDS011;56589;51.992;5.924;2023-03-01T15:22:57;7.03;;;3.50;;
69401;SDS011;56589;51.992;5.924;2023-03-01T15:25:27;4.82;;;3.30;;
69401;SDS011;56589;51.992;5.924;2023-03-01T15:27:58;6.15;;;3.00;;
69401;SDS011;56589;51.992;5.924;2023-03-01T15:30:27;8.13;;;4.57;;